<?xml version="1.0" encoding="UTF-8" standalone="no" ?>
<gpx xmlns="http://www.topografix.com/GPX/1/1" xmlns:xsi="http://www.w3.org/2001/XMLSchema-instance" xsi:schemaLocation="http://www.topografix.com/GPX/1/1 http://www.topografix.com/GPX/1/1/gpx.xsd" version="1.1" creator="VisuGPX - https://www.visugpx.com">
  <metadata>
    <name>Vallée de l'Aubette de Meulan</name>
    <desc><![CDATA[L'aubette de Meulan entre Théméricourt et Vilette]]></desc>
  </metadata>
  <trk>
    <name><![CDATA[20180416193315-dJySJ]]></name>
    <trkseg>
      <trkpt lat="49.04021" lon="1.94261">
        <ele>44</ele>
        <time>2018-04-16T19:21:33Z</time>
      </trkpt>
      <trkpt lat="49.03982" lon="1.94216">
        <ele>45</ele>
        <time>2018-04-16T19:22:33Z</time>
      </trkpt>
      <trkpt lat="49.03981" lon="1.94325">
        <ele>45</ele>
        <time>2018-04-16T19:23:33Z</time>
      </trkpt>
      <trkpt lat="49.03984" lon="1.94403">
        <ele>48</ele>
        <time>2018-04-16T19:24:33Z</time>
      </trkpt>
      <trkpt lat="49.03962" lon="1.94448">
        <ele>51</ele>
        <time>2018-04-16T19:25:33Z</time>
      </trkpt>
      <trkpt lat="49.03926" lon="1.94503">
        <ele>55</ele>
        <time>2018-04-16T19:26:33Z</time>
      </trkpt>
      <trkpt lat="49.03858" lon="1.94533">
        <ele>58</ele>
        <time>2018-04-16T19:27:33Z</time>
      </trkpt>
      <trkpt lat="49.03832" lon="1.94541">
        <ele>59</ele>
        <time>2018-04-16T19:28:33Z</time>
      </trkpt>
      <trkpt lat="49.03803" lon="1.94561">
        <ele>60</ele>
        <time>2018-04-16T19:29:33Z</time>
      </trkpt>
      <trkpt lat="49.03748" lon="1.94598">
        <ele>62</ele>
        <time>2018-04-16T19:30:33Z</time>
      </trkpt>
      <trkpt lat="49.03655" lon="1.94658">
        <ele>62</ele>
        <time>2018-04-16T19:31:33Z</time>
      </trkpt>
      <trkpt lat="49.03582" lon="1.94693">
        <ele>69</ele>
        <time>2018-04-16T19:32:33Z</time>
      </trkpt>
      <trkpt lat="49.03453" lon="1.94692">
        <ele>76</ele>
        <time>2018-04-16T19:33:33Z</time>
      </trkpt>
      <trkpt lat="49.03398" lon="1.94689">
        <ele>79</ele>
        <time>2018-04-16T19:34:33Z</time>
      </trkpt>
      <trkpt lat="49.03365" lon="1.94702">
        <ele>80</ele>
        <time>2018-04-16T19:35:33Z</time>
      </trkpt>
      <trkpt lat="49.03318" lon="1.94773">
        <ele>83</ele>
        <time>2018-04-16T19:36:33Z</time>
      </trkpt>
      <trkpt lat="49.03272" lon="1.94855">
        <ele>83</ele>
        <time>2018-04-16T19:37:33Z</time>
      </trkpt>
      <trkpt lat="49.03225" lon="1.94934">
        <ele>83</ele>
        <time>2018-04-16T19:38:33Z</time>
      </trkpt>
      <trkpt lat="49.03188" lon="1.94991">
        <ele>84</ele>
        <time>2018-04-16T19:39:33Z</time>
      </trkpt>
      <trkpt lat="49.03144" lon="1.95051">
        <ele>84</ele>
        <time>2018-04-16T19:40:33Z</time>
      </trkpt>
      <trkpt lat="49.03083" lon="1.95102">
        <ele>83</ele>
        <time>2018-04-16T19:41:33Z</time>
      </trkpt>
      <trkpt lat="49.0301" lon="1.95099">
        <ele>83</ele>
        <time>2018-04-16T19:42:33Z</time>
      </trkpt>
      <trkpt lat="49.0293" lon="1.95074">
        <ele>87</ele>
        <time>2018-04-16T19:43:33Z</time>
      </trkpt>
      <trkpt lat="49.02796" lon="1.94978">
        <ele>96</ele>
        <time>2018-04-16T19:44:33Z</time>
      </trkpt>
      <trkpt lat="49.0283" lon="1.94714">
        <ele>92</ele>
        <time>2018-04-16T19:45:33Z</time>
      </trkpt>
      <trkpt lat="49.02862" lon="1.94519">
        <ele>95</ele>
        <time>2018-04-16T19:46:33Z</time>
      </trkpt>
      <trkpt lat="49.02878" lon="1.94499">
        <ele>97</ele>
        <time>2018-04-16T19:47:33Z</time>
      </trkpt>
      <trkpt lat="49.02996" lon="1.94481">
        <ele>95</ele>
        <time>2018-04-16T19:48:33Z</time>
      </trkpt>
      <trkpt lat="49.03011" lon="1.94462">
        <ele>92</ele>
        <time>2018-04-16T19:49:33Z</time>
      </trkpt>
      <trkpt lat="49.03019" lon="1.94424">
        <ele>91</ele>
        <time>2018-04-16T19:50:33Z</time>
      </trkpt>
      <trkpt lat="49.03014" lon="1.94396">
        <ele>85</ele>
        <time>2018-04-16T19:51:33Z</time>
      </trkpt>
      <trkpt lat="49.03003" lon="1.94377">
        <ele>83</ele>
        <time>2018-04-16T19:52:33Z</time>
      </trkpt>
      <trkpt lat="49.02962" lon="1.94329">
        <ele>80</ele>
        <time>2018-04-16T19:53:33Z</time>
      </trkpt>
      <trkpt lat="49.02931" lon="1.94192">
        <ele>70</ele>
        <time>2018-04-16T19:54:33Z</time>
      </trkpt>
      <trkpt lat="49.02948" lon="1.93992">
        <ele>56</ele>
        <time>2018-04-16T19:55:33Z</time>
      </trkpt>
      <trkpt lat="49.0296" lon="1.93865">
        <ele>54</ele>
        <time>2018-04-16T19:56:33Z</time>
      </trkpt>
      <trkpt lat="49.02941" lon="1.93787">
        <ele>52</ele>
        <time>2018-04-16T19:57:33Z</time>
      </trkpt>
      <trkpt lat="49.02956" lon="1.93756">
        <ele>51</ele>
        <time>2018-04-16T19:58:33Z</time>
      </trkpt>
      <trkpt lat="49.03001" lon="1.93746">
        <ele>48</ele>
        <time>2018-04-16T19:59:33Z</time>
      </trkpt>
      <trkpt lat="49.03044" lon="1.93693">
        <ele>45</ele>
        <time>2018-04-16T20:00:33Z</time>
      </trkpt>
      <trkpt lat="49.03097" lon="1.93611">
        <ele>46</ele>
        <time>2018-04-16T20:01:33Z</time>
      </trkpt>
      <trkpt lat="49.03072" lon="1.93564">
        <ele>45</ele>
        <time>2018-04-16T20:02:33Z</time>
      </trkpt>
      <trkpt lat="49.03095" lon="1.93483">
        <ele>49</ele>
        <time>2018-04-16T20:03:33Z</time>
      </trkpt>
      <trkpt lat="49.0309" lon="1.93416">
        <ele>51</ele>
        <time>2018-04-16T20:04:33Z</time>
      </trkpt>
      <trkpt lat="49.03086" lon="1.93362">
        <ele>55</ele>
        <time>2018-04-16T20:05:33Z</time>
      </trkpt>
      <trkpt lat="49.0315" lon="1.933">
        <ele>59</ele>
        <time>2018-04-16T20:06:33Z</time>
      </trkpt>
      <trkpt lat="49.03188" lon="1.93323">
        <ele>63</ele>
        <time>2018-04-16T20:07:33Z</time>
      </trkpt>
      <trkpt lat="49.03264" lon="1.93408">
        <ele>67</ele>
        <time>2018-04-16T20:08:33Z</time>
      </trkpt>
      <trkpt lat="49.03292" lon="1.93419">
        <ele>69</ele>
        <time>2018-04-16T20:09:33Z</time>
      </trkpt>
      <trkpt lat="49.03344" lon="1.93491">
        <ele>74</ele>
        <time>2018-04-16T20:10:33Z</time>
      </trkpt>
      <trkpt lat="49.03403" lon="1.93547">
        <ele>73</ele>
        <time>2018-04-16T20:11:33Z</time>
      </trkpt>
      <trkpt lat="49.03346" lon="1.93489">
        <ele>74</ele>
        <time>2018-04-16T20:12:33Z</time>
      </trkpt>
      <trkpt lat="49.03294" lon="1.93417">
        <ele>69</ele>
        <time>2018-04-16T20:13:33Z</time>
      </trkpt>
      <trkpt lat="49.0341" lon="1.93298">
        <ele>76</ele>
        <time>2018-04-16T20:14:33Z</time>
      </trkpt>
      <trkpt lat="49.03486" lon="1.93253">
        <ele>79</ele>
        <time>2018-04-16T20:15:33Z</time>
      </trkpt>
      <trkpt lat="49.03539" lon="1.93206">
        <ele>79</ele>
        <time>2018-04-16T20:16:33Z</time>
      </trkpt>
      <trkpt lat="49.03649" lon="1.93314">
        <ele>79</ele>
        <time>2018-04-16T20:17:33Z</time>
      </trkpt>
      <trkpt lat="49.03754" lon="1.93449">
        <ele>80</ele>
        <time>2018-04-16T20:18:33Z</time>
      </trkpt>
      <trkpt lat="49.03794" lon="1.93504">
        <ele>78</ele>
        <time>2018-04-16T20:19:33Z</time>
      </trkpt>
      <trkpt lat="49.03823" lon="1.93564">
        <ele>78</ele>
        <time>2018-04-16T20:20:33Z</time>
      </trkpt>
      <trkpt lat="49.03883" lon="1.93638">
        <ele>78</ele>
        <time>2018-04-16T20:21:33Z</time>
      </trkpt>
      <trkpt lat="49.03964" lon="1.93711">
        <ele>74</ele>
        <time>2018-04-16T20:22:33Z</time>
      </trkpt>
      <trkpt lat="49.03988" lon="1.93745">
        <ele>72</ele>
        <time>2018-04-16T20:23:33Z</time>
      </trkpt>
      <trkpt lat="49.03982" lon="1.93783">
        <ele>69</ele>
        <time>2018-04-16T20:24:33Z</time>
      </trkpt>
      <trkpt lat="49.03983" lon="1.9382">
        <ele>68</ele>
        <time>2018-04-16T20:25:33Z</time>
      </trkpt>
      <trkpt lat="49.04029" lon="1.93888">
        <ele>64</ele>
        <time>2018-04-16T20:26:33Z</time>
      </trkpt>
      <trkpt lat="49.04072" lon="1.93951">
        <ele>61</ele>
        <time>2018-04-16T20:27:33Z</time>
      </trkpt>
      <trkpt lat="49.04063" lon="1.94145">
        <ele>50</ele>
        <time>2018-04-16T20:28:33Z</time>
      </trkpt>
      <trkpt lat="49.04085" lon="1.94202">
        <ele>48</ele>
        <time>2018-04-16T20:29:33Z</time>
      </trkpt>
      <trkpt lat="49.04111" lon="1.94242">
        <ele>47</ele>
        <time>2018-04-16T20:30:33Z</time>
      </trkpt>
      <trkpt lat="49.04141" lon="1.94279">
        <ele>45</ele>
        <time>2018-04-16T20:31:33Z</time>
      </trkpt>
      <trkpt lat="49.04175" lon="1.94305">
        <ele>46</ele>
        <time>2018-04-16T20:32:33Z</time>
      </trkpt>
      <trkpt lat="49.04277" lon="1.94277">
        <ele>47</ele>
        <time>2018-04-16T20:33:33Z</time>
      </trkpt>
      <trkpt lat="49.04319" lon="1.94278">
        <ele>46</ele>
        <time>2018-04-16T20:34:33Z</time>
      </trkpt>
      <trkpt lat="49.04337" lon="1.94278">
        <ele>47</ele>
        <time>2018-04-16T20:35:33Z</time>
      </trkpt>
      <trkpt lat="49.04366" lon="1.94296">
        <ele>47</ele>
        <time>2018-04-16T20:36:33Z</time>
      </trkpt>
      <trkpt lat="49.0439" lon="1.94295">
        <ele>48</ele>
        <time>2018-04-16T20:37:33Z</time>
      </trkpt>
      <trkpt lat="49.04444" lon="1.94322">
        <ele>49</ele>
        <time>2018-04-16T20:38:33Z</time>
      </trkpt>
      <trkpt lat="49.04484" lon="1.94328">
        <ele>49</ele>
        <time>2018-04-16T20:39:33Z</time>
      </trkpt>
      <trkpt lat="49.04573" lon="1.94331">
        <ele>49</ele>
        <time>2018-04-16T20:40:33Z</time>
      </trkpt>
      <trkpt lat="49.04678" lon="1.94294">
        <ele>50</ele>
        <time>2018-04-16T20:41:33Z</time>
      </trkpt>
      <trkpt lat="49.0477" lon="1.94227">
        <ele>51</ele>
        <time>2018-04-16T20:42:33Z</time>
      </trkpt>
      <trkpt lat="49.04786" lon="1.94682">
        <ele>45</ele>
        <time>2018-04-16T20:43:33Z</time>
      </trkpt>
      <trkpt lat="49.04823" lon="1.947">
        <ele>45</ele>
        <time>2018-04-16T20:44:33Z</time>
      </trkpt>
      <trkpt lat="49.04865" lon="1.94702">
        <ele>47</ele>
        <time>2018-04-16T20:45:33Z</time>
      </trkpt>
      <trkpt lat="49.04917" lon="1.94695">
        <ele>50</ele>
        <time>2018-04-16T20:46:33Z</time>
      </trkpt>
      <trkpt lat="49.04937" lon="1.94688">
        <ele>50</ele>
        <time>2018-04-16T20:47:33Z</time>
      </trkpt>
      <trkpt lat="49.0496" lon="1.94692">
        <ele>50</ele>
        <time>2018-04-16T20:48:33Z</time>
      </trkpt>
      <trkpt lat="49.05017" lon="1.94794">
        <ele>48</ele>
        <time>2018-04-16T20:49:33Z</time>
      </trkpt>
      <trkpt lat="49.05052" lon="1.94841">
        <ele>47</ele>
        <time>2018-04-16T20:50:33Z</time>
      </trkpt>
      <trkpt lat="49.05083" lon="1.94874">
        <ele>46</ele>
        <time>2018-04-16T20:51:33Z</time>
      </trkpt>
      <trkpt lat="49.05137" lon="1.94781">
        <ele>46</ele>
        <time>2018-04-16T20:52:33Z</time>
      </trkpt>
      <trkpt lat="49.05183" lon="1.94737">
        <ele>48</ele>
        <time>2018-04-16T20:53:33Z</time>
      </trkpt>
      <trkpt lat="49.05214" lon="1.94694">
        <ele>49</ele>
        <time>2018-04-16T20:54:33Z</time>
      </trkpt>
      <trkpt lat="49.0526" lon="1.94594">
        <ele>51</ele>
        <time>2018-04-16T20:55:33Z</time>
      </trkpt>
      <trkpt lat="49.05354" lon="1.94398">
        <ele>49</ele>
        <time>2018-04-16T20:56:33Z</time>
      </trkpt>
      <trkpt lat="49.05368" lon="1.9436">
        <ele>49</ele>
        <time>2018-04-16T20:57:33Z</time>
      </trkpt>
      <trkpt lat="49.05388" lon="1.94225">
        <ele>49</ele>
        <time>2018-04-16T20:58:33Z</time>
      </trkpt>
      <trkpt lat="49.05421" lon="1.94082">
        <ele>48</ele>
        <time>2018-04-16T20:59:33Z</time>
      </trkpt>
      <trkpt lat="49.05506" lon="1.93866">
        <ele>50</ele>
        <time>2018-04-16T21:00:33Z</time>
      </trkpt>
      <trkpt lat="49.05548" lon="1.93775">
        <ele>50</ele>
        <time>2018-04-16T21:01:33Z</time>
      </trkpt>
      <trkpt lat="49.05594" lon="1.93697">
        <ele>52</ele>
        <time>2018-04-16T21:02:33Z</time>
      </trkpt>
      <trkpt lat="49.0565" lon="1.93622">
        <ele>50</ele>
        <time>2018-04-16T21:03:33Z</time>
      </trkpt>
      <trkpt lat="49.05707" lon="1.93562">
        <ele>51</ele>
        <time>2018-04-16T21:04:33Z</time>
      </trkpt>
      <trkpt lat="49.05772" lon="1.93496">
        <ele>51</ele>
        <time>2018-04-16T21:05:33Z</time>
      </trkpt>
      <trkpt lat="49.05824" lon="1.93462">
        <ele>51</ele>
        <time>2018-04-16T21:06:33Z</time>
      </trkpt>
      <trkpt lat="49.05885" lon="1.93423">
        <ele>53</ele>
        <time>2018-04-16T21:07:33Z</time>
      </trkpt>
      <trkpt lat="49.05956" lon="1.934">
        <ele>51</ele>
        <time>2018-04-16T21:08:33Z</time>
      </trkpt>
      <trkpt lat="49.06023" lon="1.9341">
        <ele>52</ele>
        <time>2018-04-16T21:09:33Z</time>
      </trkpt>
      <trkpt lat="49.06179" lon="1.93455">
        <ele>57</ele>
        <time>2018-04-16T21:10:33Z</time>
      </trkpt>
      <trkpt lat="49.06319" lon="1.93499">
        <ele>57</ele>
        <time>2018-04-16T21:11:33Z</time>
      </trkpt>
      <trkpt lat="49.06329" lon="1.93466">
        <ele>56</ele>
        <time>2018-04-16T21:12:33Z</time>
      </trkpt>
      <trkpt lat="49.06345" lon="1.93458">
        <ele>56</ele>
        <time>2018-04-16T21:13:33Z</time>
      </trkpt>
      <trkpt lat="49.06372" lon="1.9343">
        <ele>56</ele>
        <time>2018-04-16T21:14:33Z</time>
      </trkpt>
      <trkpt lat="49.06362" lon="1.93349">
        <ele>54</ele>
        <time>2018-04-16T21:15:33Z</time>
      </trkpt>
      <trkpt lat="49.06342" lon="1.93269">
        <ele>54</ele>
        <time>2018-04-16T21:16:33Z</time>
      </trkpt>
      <trkpt lat="49.06328" lon="1.93193">
        <ele>57</ele>
        <time>2018-04-16T21:17:33Z</time>
      </trkpt>
      <trkpt lat="49.06301" lon="1.93179">
        <ele>57</ele>
        <time>2018-04-16T21:18:33Z</time>
      </trkpt>
      <trkpt lat="49.06275" lon="1.93109">
        <ele>60</ele>
        <time>2018-04-16T21:19:33Z</time>
      </trkpt>
      <trkpt lat="49.0628" lon="1.93094">
        <ele>60</ele>
        <time>2018-04-16T21:20:33Z</time>
      </trkpt>
      <trkpt lat="49.0627" lon="1.93055">
        <ele>63</ele>
        <time>2018-04-16T21:21:33Z</time>
      </trkpt>
      <trkpt lat="49.06247" lon="1.92918">
        <ele>68</ele>
        <time>2018-04-16T21:22:33Z</time>
      </trkpt>
      <trkpt lat="49.06239" lon="1.92849">
        <ele>67</ele>
        <time>2018-04-16T21:23:33Z</time>
      </trkpt>
      <trkpt lat="49.06223" lon="1.92668">
        <ele>69</ele>
        <time>2018-04-16T21:24:33Z</time>
      </trkpt>
      <trkpt lat="49.06199" lon="1.92477">
        <ele>72</ele>
        <time>2018-04-16T21:25:33Z</time>
      </trkpt>
      <trkpt lat="49.06194" lon="1.92415">
        <ele>74</ele>
        <time>2018-04-16T21:26:33Z</time>
      </trkpt>
      <trkpt lat="49.06195" lon="1.92283">
        <ele>75</ele>
        <time>2018-04-16T21:27:33Z</time>
      </trkpt>
      <trkpt lat="49.06198" lon="1.92069">
        <ele>73</ele>
        <time>2018-04-16T21:28:33Z</time>
      </trkpt>
      <trkpt lat="49.06397" lon="1.91943">
        <ele>69</ele>
        <time>2018-04-16T21:29:33Z</time>
      </trkpt>
      <trkpt lat="49.06434" lon="1.91904">
        <ele>68</ele>
        <time>2018-04-16T21:30:33Z</time>
      </trkpt>
      <trkpt lat="49.06463" lon="1.9185">
        <ele>69</ele>
        <time>2018-04-16T21:31:33Z</time>
      </trkpt>
      <trkpt lat="49.06487" lon="1.91745">
        <ele>70</ele>
        <time>2018-04-16T21:32:33Z</time>
      </trkpt>
      <trkpt lat="49.06543" lon="1.91513">
        <ele>73</ele>
        <time>2018-04-16T21:33:33Z</time>
      </trkpt>
      <trkpt lat="49.06636" lon="1.91284">
        <ele>75</ele>
        <time>2018-04-16T21:34:33Z</time>
      </trkpt>
      <trkpt lat="49.06688" lon="1.91161">
        <ele>77</ele>
        <time>2018-04-16T21:35:33Z</time>
      </trkpt>
      <trkpt lat="49.06751" lon="1.91063">
        <ele>79</ele>
        <time>2018-04-16T21:36:33Z</time>
      </trkpt>
      <trkpt lat="49.06821" lon="1.90927">
        <ele>81</ele>
        <time>2018-04-16T21:37:33Z</time>
      </trkpt>
      <trkpt lat="49.06869" lon="1.90812">
        <ele>83</ele>
        <time>2018-04-16T21:38:33Z</time>
      </trkpt>
      <trkpt lat="49.06932" lon="1.90642">
        <ele>86</ele>
        <time>2018-04-16T21:39:33Z</time>
      </trkpt>
      <trkpt lat="49.06963" lon="1.90556">
        <ele>88</ele>
        <time>2018-04-16T21:40:33Z</time>
      </trkpt>
      <trkpt lat="49.07038" lon="1.90406">
        <ele>89</ele>
        <time>2018-04-16T21:41:33Z</time>
      </trkpt>
      <trkpt lat="49.07144" lon="1.90195">
        <ele>88</ele>
        <time>2018-04-16T21:42:33Z</time>
      </trkpt>
      <trkpt lat="49.07391" lon="1.90374">
        <ele>87</ele>
        <time>2018-04-16T21:43:33Z</time>
      </trkpt>
      <trkpt lat="49.07561" lon="1.89994">
        <ele>91</ele>
        <time>2018-04-16T21:44:33Z</time>
      </trkpt>
      <trkpt lat="49.07701" lon="1.90024">
        <ele>89</ele>
        <time>2018-04-16T21:45:33Z</time>
      </trkpt>
      <trkpt lat="49.07843" lon="1.90037">
        <ele>85</ele>
        <time>2018-04-16T21:46:33Z</time>
      </trkpt>
      <trkpt lat="49.07924" lon="1.90037">
        <ele>85</ele>
        <time>2018-04-16T21:47:33Z</time>
      </trkpt>
      <trkpt lat="49.08046" lon="1.90013">
        <ele>86</ele>
        <time>2018-04-16T21:48:33Z</time>
      </trkpt>
      <trkpt lat="49.08085" lon="1.90016">
        <ele>85</ele>
        <time>2018-04-16T21:49:33Z</time>
      </trkpt>
      <trkpt lat="49.08159" lon="1.89992">
        <ele>84</ele>
        <time>2018-04-16T21:50:33Z</time>
      </trkpt>
      <trkpt lat="49.08235" lon="1.89934">
        <ele>81</ele>
        <time>2018-04-16T21:51:33Z</time>
      </trkpt>
      <trkpt lat="49.08324" lon="1.89848">
        <ele>78</ele>
        <time>2018-04-16T21:52:33Z</time>
      </trkpt>
      <trkpt lat="49.08359" lon="1.8978">
        <ele>77</ele>
        <time>2018-04-16T21:53:33Z</time>
      </trkpt>
      <trkpt lat="49.08382" lon="1.89748">
        <ele>79</ele>
        <time>2018-04-16T21:54:33Z</time>
      </trkpt>
      <trkpt lat="49.08412" lon="1.89723">
        <ele>79</ele>
        <time>2018-04-16T21:55:33Z</time>
      </trkpt>
      <trkpt lat="49.08426" lon="1.89721">
        <ele>78</ele>
        <time>2018-04-16T21:56:33Z</time>
      </trkpt>
      <trkpt lat="49.08487" lon="1.89535">
        <ele>84</ele>
        <time>2018-04-16T21:57:33Z</time>
      </trkpt>
      <trkpt lat="49.08506" lon="1.89543">
        <ele>83</ele>
        <time>2018-04-16T21:58:33Z</time>
      </trkpt>
      <trkpt lat="49.08509" lon="1.89569">
        <ele>82</ele>
        <time>2018-04-16T21:59:33Z</time>
      </trkpt>
      <trkpt lat="49.08523" lon="1.89584">
        <ele>81</ele>
        <time>2018-04-16T22:00:33Z</time>
      </trkpt>
      <trkpt lat="49.08553" lon="1.89597">
        <ele>79</ele>
        <time>2018-04-16T22:01:33Z</time>
      </trkpt>
      <trkpt lat="49.0859" lon="1.89595">
        <ele>78</ele>
        <time>2018-04-16T22:02:33Z</time>
      </trkpt>
      <trkpt lat="49.08622" lon="1.89572">
        <ele>79</ele>
        <time>2018-04-16T22:03:33Z</time>
      </trkpt>
      <trkpt lat="49.0865" lon="1.8958">
        <ele>79</ele>
        <time>2018-04-16T22:04:33Z</time>
      </trkpt>
      <trkpt lat="49.08655" lon="1.89566">
        <ele>79</ele>
        <time>2018-04-16T22:05:33Z</time>
      </trkpt>
      <trkpt lat="49.08668" lon="1.89568">
        <ele>80</ele>
        <time>2018-04-16T22:06:33Z</time>
      </trkpt>
      <trkpt lat="49.08664" lon="1.89683">
        <ele>78</ele>
        <time>2018-04-16T22:07:33Z</time>
      </trkpt>
      <trkpt lat="49.08686" lon="1.89757">
        <ele>78</ele>
        <time>2018-04-16T22:08:33Z</time>
      </trkpt>
      <trkpt lat="49.08747" lon="1.89889">
        <ele>78</ele>
        <time>2018-04-16T22:09:33Z</time>
      </trkpt>
      <trkpt lat="49.08852" lon="1.89844">
        <ele>84</ele>
        <time>2018-04-16T22:10:33Z</time>
      </trkpt>
      <trkpt lat="49.08882" lon="1.89863">
        <ele>85</ele>
        <time>2018-04-16T22:11:33Z</time>
      </trkpt>
      <trkpt lat="49.08886" lon="1.89896">
        <ele>87</ele>
        <time>2018-04-16T22:12:33Z</time>
      </trkpt>
      <trkpt lat="49.08824" lon="1.90029">
        <ele>94</ele>
        <time>2018-04-16T22:13:33Z</time>
      </trkpt>
      <trkpt lat="49.08825" lon="1.90143">
        <ele>100</ele>
        <time>2018-04-16T22:14:33Z</time>
      </trkpt>
      <trkpt lat="49.08838" lon="1.90254">
        <ele>109</ele>
        <time>2018-04-16T22:15:33Z</time>
      </trkpt>
      <trkpt lat="49.08864" lon="1.90379">
        <ele>114</ele>
        <time>2018-04-16T22:16:33Z</time>
      </trkpt>
      <trkpt lat="49.08861" lon="1.90475">
        <ele>114</ele>
        <time>2018-04-16T22:17:33Z</time>
      </trkpt>
      <trkpt lat="49.08847" lon="1.90563">
        <ele>116</ele>
        <time>2018-04-16T22:18:33Z</time>
      </trkpt>
      <trkpt lat="49.08818" lon="1.90706">
        <ele>116</ele>
        <time>2018-04-16T22:19:33Z</time>
      </trkpt>
      <trkpt lat="49.088" lon="1.90735">
        <ele>116</ele>
        <time>2018-04-16T22:20:33Z</time>
      </trkpt>
      <trkpt lat="49.08776" lon="1.90835">
        <ele>119</ele>
        <time>2018-04-16T22:21:33Z</time>
      </trkpt>
      <trkpt lat="49.08733" lon="1.91078">
        <ele>116</ele>
        <time>2018-04-16T22:22:33Z</time>
      </trkpt>
      <trkpt lat="49.08641" lon="1.91275">
        <ele>114</ele>
        <time>2018-04-16T22:23:33Z</time>
      </trkpt>
      <trkpt lat="49.08592" lon="1.91469">
        <ele>114</ele>
        <time>2018-04-16T22:24:33Z</time>
      </trkpt>
      <trkpt lat="49.08533" lon="1.91668">
        <ele>115</ele>
        <time>2018-04-16T22:25:33Z</time>
      </trkpt>
      <trkpt lat="49.08478" lon="1.91786">
        <ele>116</ele>
        <time>2018-04-16T22:26:33Z</time>
      </trkpt>
      <trkpt lat="49.08397" lon="1.9197">
        <ele>116</ele>
        <time>2018-04-16T22:27:33Z</time>
      </trkpt>
      <trkpt lat="49.08334" lon="1.92075">
        <ele>117</ele>
        <time>2018-04-16T22:28:33Z</time>
      </trkpt>
      <trkpt lat="49.08289" lon="1.92178">
        <ele>119</ele>
        <time>2018-04-16T22:29:33Z</time>
      </trkpt>
      <trkpt lat="49.08292" lon="1.92224">
        <ele>119</ele>
        <time>2018-04-16T22:30:33Z</time>
      </trkpt>
      <trkpt lat="49.08186" lon="1.92236">
        <ele>113</ele>
        <time>2018-04-16T22:31:33Z</time>
      </trkpt>
      <trkpt lat="49.08177" lon="1.92233">
        <ele>112</ele>
        <time>2018-04-16T22:32:33Z</time>
      </trkpt>
      <trkpt lat="49.08153" lon="1.92253">
        <ele>108</ele>
        <time>2018-04-16T22:33:33Z</time>
      </trkpt>
      <trkpt lat="49.08112" lon="1.92296">
        <ele>104</ele>
        <time>2018-04-16T22:34:33Z</time>
      </trkpt>
      <trkpt lat="49.08087" lon="1.92309">
        <ele>102</ele>
        <time>2018-04-16T22:35:33Z</time>
      </trkpt>
      <trkpt lat="49.0807" lon="1.92308">
        <ele>96</ele>
        <time>2018-04-16T22:36:33Z</time>
      </trkpt>
      <trkpt lat="49.0792" lon="1.92281">
        <ele>82</ele>
        <time>2018-04-16T22:37:33Z</time>
      </trkpt>
      <trkpt lat="49.07847" lon="1.9226">
        <ele>76</ele>
        <time>2018-04-16T22:38:33Z</time>
      </trkpt>
      <trkpt lat="49.07819" lon="1.92421">
        <ele>72</ele>
        <time>2018-04-16T22:39:33Z</time>
      </trkpt>
      <trkpt lat="49.0779" lon="1.92547">
        <ele>71</ele>
        <time>2018-04-16T22:40:33Z</time>
      </trkpt>
      <trkpt lat="49.07732" lon="1.92758">
        <ele>70</ele>
        <time>2018-04-16T22:41:33Z</time>
      </trkpt>
      <trkpt lat="49.07759" lon="1.92785">
        <ele>72</ele>
        <time>2018-04-16T22:42:33Z</time>
      </trkpt>
      <trkpt lat="49.0779" lon="1.92804">
        <ele>73</ele>
        <time>2018-04-16T22:43:33Z</time>
      </trkpt>
      <trkpt lat="49.07757" lon="1.92921">
        <ele>81</ele>
        <time>2018-04-16T22:44:33Z</time>
      </trkpt>
      <trkpt lat="49.0771" lon="1.93114">
        <ele>88</ele>
        <time>2018-04-16T22:45:33Z</time>
      </trkpt>
      <trkpt lat="49.0768" lon="1.93236">
        <ele>93</ele>
        <time>2018-04-16T22:46:33Z</time>
      </trkpt>
      <trkpt lat="49.07673" lon="1.93378">
        <ele>100</ele>
        <time>2018-04-16T22:47:33Z</time>
      </trkpt>
      <trkpt lat="49.07684" lon="1.93429">
        <ele>102</ele>
        <time>2018-04-16T22:48:33Z</time>
      </trkpt>
      <trkpt lat="49.07671" lon="1.9356">
        <ele>107</ele>
        <time>2018-04-16T22:49:33Z</time>
      </trkpt>
      <trkpt lat="49.07675" lon="1.93768">
        <ele>116</ele>
        <time>2018-04-16T22:50:33Z</time>
      </trkpt>
      <trkpt lat="49.07423" lon="1.93946">
        <ele>120</ele>
        <time>2018-04-16T22:51:33Z</time>
      </trkpt>
      <trkpt lat="49.07278" lon="1.94064">
        <ele>129</ele>
        <time>2018-04-16T22:52:33Z</time>
      </trkpt>
      <trkpt lat="49.07171" lon="1.94131">
        <ele>128</ele>
        <time>2018-04-16T22:53:33Z</time>
      </trkpt>
      <trkpt lat="49.0714" lon="1.94146">
        <ele>125</ele>
        <time>2018-04-16T22:54:33Z</time>
      </trkpt>
      <trkpt lat="49.07103" lon="1.94166">
        <ele>124</ele>
        <time>2018-04-16T22:55:33Z</time>
      </trkpt>
      <trkpt lat="49.07083" lon="1.94213">
        <ele>119</ele>
        <time>2018-04-16T22:56:33Z</time>
      </trkpt>
      <trkpt lat="49.07007" lon="1.94481">
        <ele>115</ele>
        <time>2018-04-16T22:57:33Z</time>
      </trkpt>
      <trkpt lat="49.0694" lon="1.94573">
        <ele>112</ele>
        <time>2018-04-16T22:58:33Z</time>
      </trkpt>
      <trkpt lat="49.068" lon="1.94744">
        <ele>115</ele>
        <time>2018-04-16T22:59:33Z</time>
      </trkpt>
      <trkpt lat="49.06749" lon="1.94817">
        <ele>113</ele>
        <time>2018-04-16T23:00:33Z</time>
      </trkpt>
      <trkpt lat="49.06657" lon="1.95011">
        <ele>112</ele>
        <time>2018-04-16T23:01:33Z</time>
      </trkpt>
      <trkpt lat="49.06582" lon="1.95142">
        <ele>110</ele>
        <time>2018-04-16T23:02:33Z</time>
      </trkpt>
      <trkpt lat="49.06503" lon="1.95191">
        <ele>113</ele>
        <time>2018-04-16T23:03:33Z</time>
      </trkpt>
      <trkpt lat="49.06443" lon="1.95336">
        <ele>120</ele>
        <time>2018-04-16T23:04:33Z</time>
      </trkpt>
      <trkpt lat="49.06367" lon="1.95449">
        <ele>121</ele>
        <time>2018-04-16T23:05:33Z</time>
      </trkpt>
      <trkpt lat="49.06284" lon="1.9559">
        <ele>121</ele>
        <time>2018-04-16T23:06:33Z</time>
      </trkpt>
      <trkpt lat="49.06195" lon="1.95802">
        <ele>118</ele>
        <time>2018-04-16T23:07:33Z</time>
      </trkpt>
      <trkpt lat="49.0613" lon="1.95992">
        <ele>115</ele>
        <time>2018-04-16T23:08:33Z</time>
      </trkpt>
      <trkpt lat="49.0609" lon="1.96086">
        <ele>112</ele>
        <time>2018-04-16T23:09:33Z</time>
      </trkpt>
      <trkpt lat="49.0612" lon="1.96189">
        <ele>113</ele>
        <time>2018-04-16T23:10:33Z</time>
      </trkpt>
      <trkpt lat="49.06023" lon="1.96232">
        <ele>112</ele>
        <time>2018-04-16T23:11:33Z</time>
      </trkpt>
      <trkpt lat="49.06006" lon="1.9626">
        <ele>112</ele>
        <time>2018-04-16T23:12:33Z</time>
      </trkpt>
      <trkpt lat="49.05991" lon="1.96259">
        <ele>112</ele>
        <time>2018-04-16T23:13:33Z</time>
      </trkpt>
      <trkpt lat="49.05976" lon="1.96252">
        <ele>112</ele>
        <time>2018-04-16T23:14:33Z</time>
      </trkpt>
      <trkpt lat="49.05897" lon="1.96189">
        <ele>107</ele>
        <time>2018-04-16T23:15:33Z</time>
      </trkpt>
      <trkpt lat="49.05844" lon="1.96164">
        <ele>102</ele>
        <time>2018-04-16T23:16:33Z</time>
      </trkpt>
      <trkpt lat="49.05767" lon="1.96161">
        <ele>95</ele>
        <time>2018-04-16T23:17:33Z</time>
      </trkpt>
      <trkpt lat="49.05653" lon="1.9609">
        <ele>88</ele>
        <time>2018-04-16T23:18:33Z</time>
      </trkpt>
      <trkpt lat="49.05627" lon="1.96061">
        <ele>84</ele>
        <time>2018-04-16T23:19:33Z</time>
      </trkpt>
      <trkpt lat="49.05612" lon="1.96025">
        <ele>82</ele>
        <time>2018-04-16T23:20:33Z</time>
      </trkpt>
      <trkpt lat="49.05578" lon="1.95978">
        <ele>79</ele>
        <time>2018-04-16T23:21:33Z</time>
      </trkpt>
      <trkpt lat="49.05587" lon="1.95918">
        <ele>76</ele>
        <time>2018-04-16T23:22:33Z</time>
      </trkpt>
      <trkpt lat="49.05615" lon="1.95854">
        <ele>76</ele>
        <time>2018-04-16T23:23:33Z</time>
      </trkpt>
      <trkpt lat="49.05535" lon="1.9575">
        <ele>71</ele>
        <time>2018-04-16T23:24:33Z</time>
      </trkpt>
      <trkpt lat="49.05551" lon="1.95615">
        <ele>69</ele>
        <time>2018-04-16T23:25:33Z</time>
      </trkpt>
      <trkpt lat="49.05492" lon="1.95534">
        <ele>65</ele>
        <time>2018-04-16T23:26:33Z</time>
      </trkpt>
      <trkpt lat="49.05339" lon="1.95307">
        <ele>59</ele>
        <time>2018-04-16T23:27:33Z</time>
      </trkpt>
      <trkpt lat="49.05281" lon="1.9527">
        <ele>58</ele>
        <time>2018-04-16T23:28:33Z</time>
      </trkpt>
      <trkpt lat="49.05225" lon="1.95255">
        <ele>58</ele>
        <time>2018-04-16T23:29:33Z</time>
      </trkpt>
      <trkpt lat="49.05048" lon="1.95234">
        <ele>51</ele>
        <time>2018-04-16T23:30:33Z</time>
      </trkpt>
      <trkpt lat="49.04965" lon="1.9523">
        <ele>50</ele>
        <time>2018-04-16T23:31:33Z</time>
      </trkpt>
      <trkpt lat="49.04959" lon="1.95233">
        <ele>50</ele>
        <time>2018-04-16T23:32:33Z</time>
      </trkpt>
      <trkpt lat="49.04948" lon="1.95232">
        <ele>50</ele>
        <time>2018-04-16T23:33:33Z</time>
      </trkpt>
      <trkpt lat="49.04857" lon="1.95258">
        <ele>50</ele>
        <time>2018-04-16T23:34:33Z</time>
      </trkpt>
      <trkpt lat="49.04764" lon="1.95268">
        <ele>46</ele>
        <time>2018-04-16T23:35:33Z</time>
      </trkpt>
      <trkpt lat="49.04671" lon="1.95243">
        <ele>47</ele>
        <time>2018-04-16T23:36:33Z</time>
      </trkpt>
      <trkpt lat="49.04646" lon="1.95221">
        <ele>49</ele>
        <time>2018-04-16T23:37:33Z</time>
      </trkpt>
      <trkpt lat="49.046" lon="1.95145">
        <ele>49</ele>
        <time>2018-04-16T23:38:33Z</time>
      </trkpt>
      <trkpt lat="49.0449" lon="1.95101">
        <ele>51</ele>
        <time>2018-04-16T23:39:33Z</time>
      </trkpt>
      <trkpt lat="49.04363" lon="1.95075">
        <ele>47</ele>
        <time>2018-04-16T23:40:33Z</time>
      </trkpt>
      <trkpt lat="49.04335" lon="1.95074">
        <ele>48</ele>
        <time>2018-04-16T23:41:33Z</time>
      </trkpt>
      <trkpt lat="49.04307" lon="1.95082">
        <ele>48</ele>
        <time>2018-04-16T23:42:33Z</time>
      </trkpt>
      <trkpt lat="49.04256" lon="1.95077">
        <ele>49</ele>
        <time>2018-04-16T23:43:33Z</time>
      </trkpt>
      <trkpt lat="49.04203" lon="1.9503">
        <ele>56</ele>
        <time>2018-04-16T23:44:33Z</time>
      </trkpt>
      <trkpt lat="49.04235" lon="1.95147">
        <ele>55</ele>
        <time>2018-04-16T23:45:33Z</time>
      </trkpt>
      <trkpt lat="49.04265" lon="1.95223">
        <ele>53</ele>
        <time>2018-04-16T23:46:33Z</time>
      </trkpt>
      <trkpt lat="49.04308" lon="1.95307">
        <ele>54</ele>
        <time>2018-04-16T23:47:33Z</time>
      </trkpt>
      <trkpt lat="49.04353" lon="1.95381">
        <ele>57</ele>
        <time>2018-04-16T23:48:33Z</time>
      </trkpt>
      <trkpt lat="49.04405" lon="1.95444">
        <ele>61</ele>
        <time>2018-04-16T23:49:33Z</time>
      </trkpt>
      <trkpt lat="49.04497" lon="1.95494">
        <ele>59</ele>
        <time>2018-04-16T23:50:33Z</time>
      </trkpt>
      <trkpt lat="49.04279" lon="1.96025">
        <ele>63</ele>
        <time>2018-04-16T23:51:33Z</time>
      </trkpt>
      <trkpt lat="49.0427" lon="1.96384">
        <ele>58</ele>
        <time>2018-04-16T23:52:33Z</time>
      </trkpt>
      <trkpt lat="49.04263" lon="1.96509">
        <ele>63</ele>
        <time>2018-04-16T23:53:33Z</time>
      </trkpt>
      <trkpt lat="49.04238" lon="1.96672">
        <ele>66</ele>
        <time>2018-04-16T23:54:33Z</time>
      </trkpt>
      <trkpt lat="49.04223" lon="1.96783">
        <ele>67</ele>
        <time>2018-04-16T23:55:33Z</time>
      </trkpt>
      <trkpt lat="49.04235" lon="1.96875">
        <ele>67</ele>
        <time>2018-04-16T23:56:33Z</time>
      </trkpt>
      <trkpt lat="49.04228" lon="1.9698">
        <ele>68</ele>
        <time>2018-04-16T23:57:33Z</time>
      </trkpt>
      <trkpt lat="49.04145" lon="1.96901">
        <ele>75</ele>
        <time>2018-04-16T23:58:33Z</time>
      </trkpt>
      <trkpt lat="49.04087" lon="1.96757">
        <ele>78</ele>
        <time>2018-04-16T23:59:33Z</time>
      </trkpt>
      <trkpt lat="49.04002" lon="1.96539">
        <ele>85</ele>
        <time>2018-04-17T00:00:33Z</time>
      </trkpt>
      <trkpt lat="49.03958" lon="1.96378">
        <ele>91</ele>
        <time>2018-04-17T00:01:33Z</time>
      </trkpt>
      <trkpt lat="49.03922" lon="1.96204">
        <ele>89</ele>
        <time>2018-04-17T00:02:33Z</time>
      </trkpt>
      <trkpt lat="49.03916" lon="1.96079">
        <ele>94</ele>
        <time>2018-04-17T00:03:33Z</time>
      </trkpt>
      <trkpt lat="49.03945" lon="1.95916">
        <ele>93</ele>
        <time>2018-04-17T00:04:33Z</time>
      </trkpt>
      <trkpt lat="49.04002" lon="1.95693">
        <ele>86</ele>
        <time>2018-04-17T00:05:33Z</time>
      </trkpt>
      <trkpt lat="49.04019" lon="1.95529">
        <ele>87</ele>
        <time>2018-04-17T00:06:33Z</time>
      </trkpt>
      <trkpt lat="49.04045" lon="1.95356">
        <ele>88</ele>
        <time>2018-04-17T00:07:33Z</time>
      </trkpt>
      <trkpt lat="49.04031" lon="1.95167">
        <ele>89</ele>
        <time>2018-04-17T00:08:33Z</time>
      </trkpt>
      <trkpt lat="49.04024" lon="1.95116">
        <ele>88</ele>
        <time>2018-04-17T00:09:33Z</time>
      </trkpt>
      <trkpt lat="49.04052" lon="1.95043">
        <ele>82</ele>
        <time>2018-04-17T00:10:33Z</time>
      </trkpt>
      <trkpt lat="49.04042" lon="1.94931">
        <ele>74</ele>
        <time>2018-04-17T00:11:33Z</time>
      </trkpt>
      <trkpt lat="49.04025" lon="1.94848">
        <ele>68</ele>
        <time>2018-04-17T00:12:33Z</time>
      </trkpt>
      <trkpt lat="49.03988" lon="1.94788">
        <ele>68</ele>
        <time>2018-04-17T00:13:33Z</time>
      </trkpt>
      <trkpt lat="49.03978" lon="1.9472">
        <ele>61</ele>
        <time>2018-04-17T00:14:33Z</time>
      </trkpt>
      <trkpt lat="49.03961" lon="1.94644">
        <ele>55</ele>
        <time>2018-04-17T00:15:33Z</time>
      </trkpt>
      <trkpt lat="49.03953" lon="1.94609">
        <ele>54</ele>
        <time>2018-04-17T00:16:33Z</time>
      </trkpt>
      <trkpt lat="49.03934" lon="1.94547">
        <ele>53</ele>
        <time>2018-04-17T00:17:33Z</time>
      </trkpt>
      <trkpt lat="49.03931" lon="1.94503">
        <ele>54</ele>
        <time>2018-04-17T00:18:33Z</time>
      </trkpt>
      <trkpt lat="49.03964" lon="1.94452">
        <ele>51</ele>
        <time>2018-04-17T00:19:33Z</time>
      </trkpt>
      <trkpt lat="49.03986" lon="1.94408">
        <ele>48</ele>
        <time>2018-04-17T00:20:33Z</time>
      </trkpt>
      <trkpt lat="49.03984" lon="1.94325">
        <ele>45</ele>
        <time>2018-04-17T00:21:33Z</time>
      </trkpt>
      <trkpt lat="49.03983" lon="1.94219">
        <ele>45</ele>
        <time>2018-04-17T00:22:33Z</time>
      </trkpt>
      <trkpt lat="49.04021" lon="1.94261">
        <ele>44</ele>
        <time>2018-04-17T00:23:33Z</time>
      </trkpt>
    </trkseg>
  </trk>
</gpx>